Time;durP1;ratioP1;P1;durP2;ratioP2;P2;SDS_P1;SDS_P2;PMS_P1;PMS_P2;Temp;Humidity;BMP_temperature;BMP_pressure;BME280_temperature;BME280_humidity;BME280_pressure;Samples;Min_cycle;Max_cycle;Signal;HPM_P1;HPM_P2
2023/01/30 11:42:58;;;;;;;;;;;;;;;6.67;83.42;100864.25;5010035;28;7386;-73
2023/01/30 11:45:29;;;;;;;;;;;;;;;8.19;76.09;100860.81;4994743;28;7199;-73
2023/01/30 11:48:14;;;;;;;;;;;;;;;9.41;70.85;100848.75;5000614;28;7019;-74
2023/01/30 11:50:47;;;;;;;;;;;;;;;10.21;66.95;100841.38;4999240;28;7007;-74
2023/01/30 11:53:44;;;;;;;;;;;;;;;10.70;64.65;100846.69;5017888;28;7003;-73
2023/01/30 11:56:31;;;;;;;;;;;;;;;11.08;62.91;100851.25;4994308;28;6824;-73
2023/01/30 11:59:42;;;;;;;;;;;;;;;11.34;61.83;100849.19;4981974;28;7059;-73
2023/01/30 12:02:32;;;;;;;;;;;;;;;11.50;60.52;100862.00;4976837;28;7015;-74
2023/01/30 12:05:33;;;;;;;;;;;;;;;11.61;59.29;100869.38;4970100;28;6804;-73
2023/01/30 12:08:20;;;;;;;;;;;;;;;11.69;59.28;100868.09;4972428;28;6820;-73
2023/01/30 12:10:54;;;;;;;;;;;;;;;11.75;58.27;100865.81;4978532;28;6816;-73
2023/01/30 12:13:38;;;;;;;;;;;;;;;11.80;58.08;100856.66;4986824;28;7002;-73
2023/01/30 12:16:39;;;;;;;;;;;;;;;11.83;57.42;100855.94;4976493;28;6883;-73
2023/01/30 12:19:41;;;;;;;;;;;;;;;11.85;56.94;100858.56;4980011;28;7170;-73
2023/01/30 12:22:37;;;;;;;;;;;;;;;11.84;57.47;100860.28;4977767;28;6804;-74
2023/01/30 12:25:32;;;;;;;;;;;;;;;11.85;56.44;100854.34;4970658;28;6804;-73
2023/01/30 12:28:24;;;;;;;;;;;;;;;11.90;56.50;100854.56;4979295;28;7298;-73
2023/01/30 12:31:09;;;;;;;;;;;;;;;11.93;55.97;100850.47;4996567;28;7078;-73
2023/01/30 12:33:35;;;;;;;;;;;;;;;11.99;55.67;100847.31;5003180;28;6872;-73
2023/01/30 12:36:43;;;;;;;;;;;;;;;12.04;55.03;100856.13;4994397;28;6776;-73
2023/01/30 12:39:29;;;;;;;;;;;;;;;12.06;54.88;100859.66;4997399;28;7596;-73
2023/01/30 12:42:38;;;;;;;;;;;;;;;12.07;54.45;100866.59;4993395;28;6994;-73
2023/01/30 12:45:28;;;;;;;;;;;;;;;12.08;54.57;100862.31;4999204;28;7027;-73
2023/01/30 12:48:20;;;;;;;;;;;;;;;12.11;54.65;100856.47;4999302;28;7304;-73
2023/01/30 12:51:09;;;;;;;;;;;;;;;12.14;53.97;100866.88;4995540;28;8316;-74
2023/01/30 12:53:53;;;;;;;;;;;;;;;12.19;53.46;100858.59;4978594;28;6816;-73
2023/01/30 12:57:08;;;;;;;;;;;;;;;12.25;53.19;100863.13;4986322;28;6977;-73
2023/01/30 13:00:23;;;;;;;;;;;;;;;12.26;53.13;100857.19;4985986;28;6808;-73
2023/01/30 13:03:02;;;;;;;;;;;;;;;12.32;52.47;100866.91;4983310;28;11224;-73
2023/01/30 13:05:47;;;;;;;;;;;;;;;12.40;52.48;100863.00;4982380;28;7028;-73
2023/01/30 13:08:33;;;;;;;;;;;;;;;12.44;51.56;100858.88;4974849;28;10624;-73
2023/01/30 13:11:17;;;;;;;;;;;;;;;12.48;51.28;100868.53;4983332;28;6812;-73
2023/01/30 13:13:53;;;;;;;;;;;;;;;12.46;51.63;100875.28;4981381;28;6792;-73
2023/01/30 13:16:40;;;;;;;;;;;;;;;12.47;50.59;100871.91;4975973;28;7209;-73
2023/01/30 13:19:25;;;;;;;;;;;;;;;12.44;50.30;100856.31;4983282;28;6816;-73
2023/01/30 13:22:11;;;;;;;;;;;;;;;12.44;50.60;100867.50;4980298;28;6808;-73
2023/01/30 13:25:30;;;;;;;;;;;;;;;12.51;50.95;100868.66;4983516;28;7118;-74
2023/01/30 13:28:04;;;;;;;;;;;;;;;12.58;50.13;100870.72;4998109;28;6816;-73
2023/01/30 13:30:34;;;;;;;;;;;;;;;12.64;50.49;100881.28;4981868;28;6815;-73
2023/01/30 13:33:12;;;;;;;;;;;;;;;12.73;50.52;100885.09;4981981;28;6827;-73
2023/01/30 13:36:11;;;;;;;;;;;;;;;12.80;50.17;100881.13;4997016;28;6995;-73
2023/01/30 13:38:51;;;;;;;;;;;;;;;12.88;49.22;100898.69;4983024;28;8298;-73
2023/01/30 13:41:18;;;;;;;;;;;;;;;12.90;49.30;100891.91;4976656;28;6808;-74
2023/01/30 13:43:52;;;;;;;;;;;;;;;12.91;49.16;100903.97;4979994;28;6999;-73
2023/01/30 13:46:27;;;;;;;;;;;;;;;12.90;47.86;100899.63;4980848;28;7202;-73
2023/01/30 13:49:18;;;;;;;;;;;;;;;12.88;47.92;100910.66;4982026;28;7045;-73
2023/01/30 13:52:19;;;;;;;;;;;;;;;12.83;48.56;100920.72;4983654;28;6808;-72
2023/01/30 13:55:35;;;;;;;;;;;;;;;12.78;48.45;100917.94;4980860;28;7412;-73
2023/01/30 13:58:34;;;;;;;;;;;;;;;12.73;47.88;100924.56;4939889;28;7060;-73
2023/01/30 14:00:59;;;;;;;;;;;;;;;12.73;48.35;100931.38;4942744;28;6800;-73
2023/01/30 14:03:29;;;;;;;;;;;;;;;12.70;48.31;100921.84;4974513;28;7223;-73
2023/01/30 14:06:00;;;;;;;;;;;;;;;12.66;48.15;100934.50;4996327;28;7310;-73
2023/01/30 14:08:32;;;;;;;;;;;;;;;12.62;47.63;100933.47;4976321;28;6816;-73
2023/01/30 14:10:58;;;;;;;;;;;;;;;12.58;48.44;100942.72;4982119;28;6988;-73
2023/01/30 14:13:26;;;;;;;;;;;;;;;12.57;48.68;100946.09;4963587;28;7120;-73
2023/01/30 14:16:05;;;;;;;;;;;;;;;12.55;48.55;100952.81;4980536;28;6784;-73
2023/01/30 14:18:37;;;;;;;;;;;;;;;12.52;48.04;100951.81;4979279;28;6796;-74
2023/01/30 14:21:25;;;;;;;;;;;;;;;12.52;48.37;100970.69;4975163;28;7267;-72
2023/01/30 14:23:59;;;;;;;;;;;;;;;12.50;47.95;100974.88;4981321;28;7381;-73
2023/01/30 14:26:46;;;;;;;;;;;;;;;12.52;48.37;100980.97;4983863;28;6800;-73
2023/01/30 14:29:37;;;;;;;;;;;;;;;12.47;48.26;100983.31;4983303;28;6851;-73
2023/01/30 14:32:12;;;;;;;;;;;;;;;12.44;48.04;100982.28;4978092;28;6824;-73
2023/01/30 14:34:44;;;;;;;;;;;;;;;12.40;48.43;100985.50;4994657;28;7810;-73
2023/01/30 14:37:38;;;;;;;;;;;;;;;12.37;48.59;100983.66;4959218;28;7067;-73
2023/01/30 14:40:24;;;;;;;;;;;;;;;12.33;48.48;100992.91;4988420;28;7173;-73
2023/01/30 14:43:11;;;;;;;;;;;;;;;12.33;47.96;100997.19;5000952;28;8143;-73
2023/01/30 14:45:56;;;;;;;;;;;;;;;12.32;48.38;101006.56;4996947;28;6880;-73
2023/01/30 14:48:50;;;;;;;;;;;;;;;12.33;48.73;101012.59;4993863;28;7109;-73
2023/01/30 14:51:42;;;;;;;;;;;;;;;12.31;48.99;101019.34;4999610;28;6811;-73
2023/01/30 14:54:11;;;;;;;;;;;;;;;12.32;48.33;101037.41;4968226;28;7098;-73
2023/01/30 14:56:57;;;;;;;;;;;;;;;12.33;48.34;101031.47;4980789;28;7450;-74
2023/01/30 14:59:58;;;;;;;;;;;;;;;12.29;48.00;101037.25;4984416;28;7008;-73
2023/01/30 15:02:31;;;;;;;;;;;;;;;12.30;48.04;101030.41;4979472;28;7138;-73
2023/01/30 15:05:08;;;;;;;;;;;;;;;12.27;48.18;101028.59;4991080;28;7029;-74
2023/01/30 15:07:45;;;;;;;;;;;;;;;12.26;47.51;101041.38;4997586;28;7074;-74
2023/01/30 15:10:37;;;;;;;;;;;;;;;12.25;47.48;101037.91;4999076;28;6804;-74
2023/01/30 15:13:24;;;;;;;;;;;;;;;12.27;47.64;101048.25;4972667;28;7514;-74
2023/01/30 15:16:11;;;;;;;;;;;;;;;12.28;47.91;101057.75;4998778;28;7182;-73
2023/01/30 15:19:23;;;;;;;;;;;;;;;12.28;47.85;101061.22;4991721;28;7046;-73
2023/01/30 15:22:29;;;;;;;;;;;;;;;12.26;48.18;101061.94;4995370;28;7170;-74
2023/01/30 15:25:24;;;;;;;;;;;;;;;12.24;47.54;101061.84;5002504;28;7015;-74
2023/01/30 15:28:25;;;;;;;;;;;;;;;12.23;47.72;101072.91;4988872;28;6804;-74
2023/01/30 15:31:03;;;;;;;;;;;;;;;12.24;47.56;101066.97;4982086;28;7294;-74
2023/01/30 15:33:28;;;;;;;;;;;;;;;12.26;48.08;101074.78;4978613;28;7206;-74
2023/01/30 15:35:54;;;;;;;;;;;;;;;12.25;47.65;101073.88;4994439;28;7195;-74
2023/01/30 15:38:30;;;;;;;;;;;;;;;12.24;47.31;101082.41;4995474;28;6784;-75
2023/01/30 15:41:02;;;;;;;;;;;;;;;12.21;48.12;101069.41;5000807;28;6815;-74
2023/01/30 15:44:09;;;;;;;;;;;;;;;12.17;47.72;101086.34;4980954;28;6824;-74
2023/01/30 15:46:47;;;;;;;;;;;;;;;12.13;47.26;101097.28;4958359;28;6973;-75
2023/01/30 15:49:48;;;;;;;;;;;;;;;12.10;47.85;101104.78;4978224;28;6943;-74
2023/01/30 15:52:19;;;;;;;;;;;;;;;12.09;46.87;101113.31;4998587;28;6819;-74
2023/01/30 15:54:51;;;;;;;;;;;;;;;12.06;47.06;101119.16;4979023;28;7030;-75
2023/01/30 15:57:31;;;;;;;;;;;;;;;12.04;47.90;101112.19;4986634;28;11359;-71
2023/01/30 15:59:58;;;;;;;;;;;;;;;12.03;47.90;101120.72;4982927;28;7163;-71
2023/01/30 16:02:33;;;;;;;;;;;;;;;12.00;47.07;101121.38;4983857;28;6989;-71
2023/01/30 16:05:23;;;;;;;;;;;;;;;11.98;47.39;101125.56;4977213;28;6990;-74
2023/01/30 16:07:52;;;;;;;;;;;;;;;11.93;47.48;101132.13;4997921;28;7653;-74
2023/01/30 16:10:29;;;;;;;;;;;;;;;11.90;47.12;101139.69;4990961;28;8777;-74
2023/01/30 16:13:01;;;;;;;;;;;;;;;11.88;47.43;101151.53;4989918;28;8637;-74
2023/01/30 16:15:51;;;;;;;;;;;;;;;11.85;46.88;101153.94;4977734;28;8395;-74
2023/01/30 16:18:19;;;;;;;;;;;;;;;11.78;47.04;101148.50;5000369;28;8271;-74
2023/01/30 16:20:53;;;;;;;;;;;;;;;11.77;47.23;101162.09;4996363;28;7285;-74
2023/01/30 16:23:30;;;;;;;;;;;;;;;11.78;47.81;101157.88;4994915;28;7944;-74
2023/01/30 16:25:58;;;;;;;;;;;;;;;11.76;47.34;101168.03;4999588;28;6879;-74
2023/01/30 16:28:28;;;;;;;;;;;;;;;11.75;47.61;101161.13;5002081;28;6799;-74
2023/01/30 16:31:06;;;;;;;;;;;;;;;11.76;47.65;101172.31;4979370;28;6799;-74
2023/01/30 16:33:36;;;;;;;;;;;;;;;11.72;47.70;101163.53;4974789;28;8177;-74
2023/01/30 16:36:18;;;;;;;;;;;;;;;11.70;47.20;101162.59;4982369;28;7070;-75
2023/01/30 16:38:46;;;;;;;;;;;;;;;11.67;47.12;101173.56;4957745;28;7289;-74
2023/01/30 16:41:38;;;;;;;;;;;;;;;11.66;47.57;101165.75;4976423;28;7326;-74
2023/01/30 16:44:23;;;;;;;;;;;;;;;11.64;47.63;101172.50;4981247;28;6812;-74
2023/01/30 16:46:59;;;;;;;;;;;;;;;11.61;47.72;101178.34;5000641;28;7142;-74
2023/01/30 16:49:34;;;;;;;;;;;;;;;11.59;47.42;101186.75;4986057;28;7015;-74
2023/01/30 16:52:08;;;;;;;;;;;;;;;11.54;47.61;101181.38;4983283;28;7161;-74
2023/01/30 16:54:35;;;;;;;;;;;;;;;11.49;47.40;101191.41;5001201;28;6939;-72
2023/01/30 16:57:02;;;;;;;;;;;;;;;11.46;47.46;101192.91;5002705;28;6800;-74
2023/01/30 16:59:34;;;;;;;;;;;;;;;11.40;47.86;101188.31;4981387;28;7003;-75
2023/01/30 17:02:04;;;;;;;;;;;;;;;11.34;47.64;101201.63;4999661;28;6976;-74
2023/01/30 17:04:34;;;;;;;;;;;;;;;11.33;47.70;101206.69;4984289;28;7020;-74
2023/01/30 17:07:03;;;;;;;;;;;;;;;11.32;47.53;101218.63;4981054;28;7001;-74
2023/01/30 17:09:36;;;;;;;;;;;;;;;11.32;47.96;101225.47;5004897;28;6867;-74
2023/01/30 17:12:29;;;;;;;;;;;;;;;11.31;48.16;101214.31;5002001;28;6787;-74
2023/01/30 17:15:13;;;;;;;;;;;;;;;11.31;47.87;101223.69;4983813;28;7899;-74
2023/01/30 17:17:40;;;;;;;;;;;;;;;11.31;48.16;101223.69;4999625;28;7098;-74
2023/01/30 17:20:07;;;;;;;;;;;;;;;11.33;48.17;101230.66;4984043;28;7355;-75
2023/01/30 17:22:34;;;;;;;;;;;;;;;11.36;48.53;101237.66;4977415;28;8804;-74
2023/01/30 17:25:13;;;;;;;;;;;;;;;11.36;48.20;101227.41;4981339;28;6881;-74
2023/01/30 17:27:39;;;;;;;;;;;;;;;11.38;48.23;101241.19;5000002;28;7018;-74
2023/01/30 17:30:14;;;;;;;;;;;;;;;11.38;47.91;101239.53;4999865;28;6783;-74
2023/01/30 17:32:40;;;;;;;;;;;;;;;11.38;48.10;101238.63;4998092;28;11362;-75
2023/01/30 17:35:06;;;;;;;;;;;;;;;11.38;48.39;101239.53;4985716;28;7058;-74
2023/01/30 17:37:32;;;;;;;;;;;;;;;11.38;48.36;101236.06;4984385;28;6780;-75
2023/01/30 17:39:59;;;;;;;;;;;;;;;11.36;47.86;101243.69;4984475;28;6786;-74
2023/01/30 17:42:24;;;;;;;;;;;;;;;11.36;47.96;101253.06;4998227;28;6792;-74
2023/01/30 17:44:50;;;;;;;;;;;;;;;11.34;47.63;101254.66;5001677;28;6791;-74
2023/01/30 17:47:16;;;;;;;;;;;;;;;11.31;47.99;101252.78;4975811;28;7177;-74
2023/01/30 17:49:42;;;;;;;;;;;;;;;11.26;47.71;101264.50;4997453;28;6965;-75
2023/01/30 17:52:10;;;;;;;;;;;;;;;11.14;47.56;101258.63;4987466;28;7180;-74
2023/01/30 17:54:35;;;;;;;;;;;;;;;11.04;47.75;101260.63;5003054;28;8163;-74
2023/01/30 17:57:05;;;;;;;;;;;;;;;10.92;48.33;101265.94;4984528;28;6771;-74
2023/01/30 17:59:31;;;;;;;;;;;;;;;10.83;48.39;101271.38;4980578;28;6867;-74
2023/01/30 18:01:58;;;;;;;;;;;;;;;10.76;48.50;101270.91;4976813;28;6866;-74
2023/01/30 18:04:24;;;;;;;;;;;;;;;10.73;48.32;101278.44;4981116;28;7392;-74
2023/01/30 18:06:57;;;;;;;;;;;;;;;10.66;48.59;101272.00;4974376;28;8098;-74
2023/01/30 18:09:23;;;;;;;;;;;;;;;10.60;48.58;101287.03;4977356;28;7208;-74
2023/01/30 18:11:50;;;;;;;;;;;;;;;10.53;48.80;101288.34;4977265;28;7867;-74
2023/01/30 18:14:16;;;;;;;;;;;;;;;10.45;48.63;101292.09;4992828;28;8457;-74
2023/01/30 18:16:43;;;;;;;;;;;;;;;10.38;48.75;101294.22;4974053;28;7255;-74
2023/01/30 18:19:14;;;;;;;;;;;;;;;10.32;49.27;101300.63;4987553;28;6971;-74
2023/01/30 18:21:43;;;;;;;;;;;;;;;10.25;49.30;101299.38;4988989;28;7151;-75
2023/01/30 18:24:11;;;;;;;;;;;;;;;10.22;50.10;101315.44;5000669;28;6854;-74
2023/01/30 18:26:37;;;;;;;;;;;;;;;10.20;49.70;101309.31;4997932;28;6791;-72
2023/01/30 18:29:03;;;;;;;;;;;;;;;10.21;49.82;101312.75;4978159;28;7272;-72
2023/01/30 18:31:30;;;;;;;;;;;;;;;10.25;50.26;101318.16;4987719;28;6761;-72
2023/01/30 18:33:56;;;;;;;;;;;;;;;10.28;50.68;101320.06;4983944;28;6800;-72
2023/01/30 18:36:22;;;;;;;;;;;;;;;10.31;50.51;101325.38;4986996;28;6938;-72
2023/01/30 18:38:48;;;;;;;;;;;;;;;10.36;50.25;101328.22;5004191;28;6851;-72
2023/01/30 18:41:19;;;;;;;;;;;;;;;10.40;50.12;101330.22;4999596;28;6780;-72
2023/01/30 18:43:47;;;;;;;;;;;;;;;10.43;50.69;101322.75;4996135;28;7305;-72
2023/01/30 18:46:17;;;;;;;;;;;;;;;10.47;50.73;101339.19;5003928;28;6833;-73
2023/01/30 18:48:45;;;;;;;;;;;;;;;10.48;50.17;101330.72;4981824;28;6788;-71
2023/01/30 18:51:26;;;;;;;;;;;;;;;10.52;50.91;101328.44;4977605;28;6808;-72
2023/01/30 18:53:53;;;;;;;;;;;;;;;10.56;50.52;101324.41;4982529;28;7174;-72
2023/01/30 18:56:26;;;;;;;;;;;;;;;10.61;50.59;101332.38;4973665;28;7202;-71
2023/01/30 18:58:58;;;;;;;;;;;;;;;10.63;50.44;101329.13;4990545;28;7268;-71
2023/01/30 19:01:30;;;;;;;;;;;;;;;10.66;50.65;101329.31;4969786;28;8940;-71
2023/01/30 19:03:59;;;;;;;;;;;;;;;10.70;50.95;101325.28;4969251;28;7220;-71
2023/01/30 19:06:27;;;;;;;;;;;;;;;10.72;50.64;101339.06;4977901;28;6808;-72
2023/01/30 19:08:53;;;;;;;;;;;;;;;10.75;50.43;101333.25;4967083;28;7181;-72
2023/01/30 19:14:07;;;;;;;;;;;;;;;10.79;50.14;101337.75;5001628;28;6999;-72
2023/01/30 19:16:35;;;;;;;;;;;;;;;10.81;50.74;101338.72;4995493;28;7869;-73
2023/01/30 19:19:01;;;;;;;;;;;;;;;10.82;50.51;101331.16;4982045;28;7197;-73
2023/01/30 19:21:27;;;;;;;;;;;;;;;10.82;50.30;101346.53;4983019;28;7042;-73
2023/01/30 19:23:53;;;;;;;;;;;;;;;10.83;50.49;101344.88;4969418;28;6947;-73
2023/01/30 19:26:21;;;;;;;;;;;;;;;10.81;50.15;101347.31;4983668;28;6971;-73
2023/01/30 19:28:47;;;;;;;;;;;;;;;10.82;50.48;101349.09;4999619;28;7201;-73
2023/01/30 19:31:16;;;;;;;;;;;;;;;10.81;50.25;101349.91;4979741;28;6788;-72
2023/01/30 19:33:45;;;;;;;;;;;;;;;10.80;50.44;101354.91;4979569;28;6986;-73
2023/01/30 19:36:15;;;;;;;;;;;;;;;10.81;50.40;101357.59;4977681;28;7141;-73
2023/01/30 19:38:43;;;;;;;;;;;;;;;10.81;50.08;101360.16;4974279;28;6792;-72
2023/01/30 19:41:18;;;;;;;;;;;;;;;10.81;50.88;101360.16;4967563;28;6879;-73
2023/01/30 19:43:44;;;;;;;;;;;;;;;10.79;50.05;101363.41;4981622;28;7290;-73
2023/01/30 19:46:10;;;;;;;;;;;;;;;10.77;50.62;101363.34;4982466;28;7248;-72
2023/01/30 19:48:38;;;;;;;;;;;;;;;10.76;50.46;101376.03;4981487;28;6791;-72
2023/01/30 19:51:15;;;;;;;;;;;;;;;10.73;49.95;101381.00;4998729;28;7057;-73
2023/01/30 19:53:43;;;;;;;;;;;;;;;10.68;50.52;101370.44;4994722;28;6804;-73
2023/01/30 19:56:12;;;;;;;;;;;;;;;10.66;50.85;101383.16;4963535;28;6983;-73
2023/01/30 19:58:39;;;;;;;;;;;;;;;10.64;50.78;101384.75;4965132;28;7056;-73
2023/01/30 20:01:07;;;;;;;;;;;;;;;10.62;50.79;101395.69;4999162;28;6863;-73
2023/01/30 20:03:33;;;;;;;;;;;;;;;10.61;50.65;101406.72;4967953;28;8514;-73
2023/01/30 20:06:20;;;;;;;;;;;;;;;10.59;50.80;101408.31;4981432;28;7065;-72
2023/01/30 20:08:52;;;;;;;;;;;;;;;10.59;51.12;101408.31;5003149;28;7343;-73
2023/01/30 20:11:20;;;;;;;;;;;;;;;10.59;50.77;101409.19;4986002;28;7049;-72
2023/01/30 20:13:46;;;;;;;;;;;;;;;10.59;50.84;101411.75;4988799;28;7347;-72
2023/01/30 20:16:19;;;;;;;;;;;;;;;10.59;51.16;101423.69;5004906;28;6812;-72
2023/01/30 20:18:48;;;;;;;;;;;;;;;10.58;50.80;101422.78;5002921;28;6804;-72
2023/01/30 20:21:17;;;;;;;;;;;;;;;10.59;51.11;101428.81;4976015;28;7225;-72
2023/01/30 20:23:44;;;;;;;;;;;;;;;10.58;51.21;101425.34;4984627;28;7011;-73
2023/01/30 20:26:22;;;;;;;;;;;;;;;10.58;51.05;101421.94;4990167;28;6800;-73
2023/01/30 20:28:48;;;;;;;;;;;;;;;10.55;50.70;101422.59;4984966;28;6987;-73
2023/01/30 20:31:18;;;;;;;;;;;;;;;10.53;50.73;101419.94;5004332;28;6847;-72
2023/01/30 20:33:44;;;;;;;;;;;;;;;10.51;50.97;101410.38;4988781;28;7030;-72
2023/01/30 20:36:13;;;;;;;;;;;;;;;10.49;50.89;101422.19;5005307;28;6791;-72
2023/01/30 20:38:43;;;;;;;;;;;;;;;10.48;50.76;101435.81;4988507;28;7123;-73
2023/01/30 20:41:15;;;;;;;;;;;;;;;10.48;50.60;101426.47;5004994;28;7003;-73
2023/01/30 20:43:45;;;;;;;;;;;;;;;10.48;51.07;101434.16;5002602;28;6788;-73
2023/01/30 20:46:25;;;;;;;;;;;;;;;10.48;50.98;101431.59;4974779;28;7258;-73
2023/01/30 20:48:53;;;;;;;;;;;;;;;10.50;51.03;101430.00;4988398;28;7285;-72
2023/01/30 20:51:25;;;;;;;;;;;;;;;10.51;50.92;101430.88;4983576;28;6824;-72
2023/01/30 20:53:57;;;;;;;;;;;;;;;10.50;50.57;101429.09;4981823;28;7133;-72
2023/01/30 20:56:28;;;;;;;;;;;;;;;10.48;50.79;101430.69;5000873;28;6811;-72
2023/01/30 20:58:54;;;;;;;;;;;;;;;10.42;50.69;101431.16;4988771;28;6804;-72
2023/01/30 21:01:23;;;;;;;;;;;;;;;10.34;50.46;101437.44;4998936;28;7558;-72
2023/01/30 21:03:51;;;;;;;;;;;;;;;10.23;50.22;101444.41;4970348;28;6888;-72
2023/01/30 21:06:23;;;;;;;;;;;;;;;10.10;50.57;101446.16;5000818;28;6939;-72
2023/01/30 21:08:49;;;;;;;;;;;;;;;9.98;50.62;101440.22;4985665;28;6996;-72
2023/01/30 21:11:18;;;;;;;;;;;;;;;9.84;51.00;101437.59;4987782;28;8316;-72
2023/01/30 21:13:45;;;;;;;;;;;;;;;9.72;51.25;101437.69;5000932;28;7516;-72
2023/01/30 21:16:21;;;;;;;;;;;;;;;9.62;50.86;101439.50;4982116;28;6974;-72
2023/01/30 21:18:53;;;;;;;;;;;;;;;9.50;51.04;101443.00;4995245;28;6892;-72
2023/01/30 21:21:25;;;;;;;;;;;;;;;9.41;51.40;101444.91;4985749;28;6800;-72
2023/01/30 21:23:56;;;;;;;;;;;;;;;9.33;50.75;101448.59;5000205;28;6856;-72
2023/01/30 21:26:24;;;;;;;;;;;;;;;9.24;51.16;101444.63;4981425;28;6800;-72
2023/01/30 21:28:51;;;;;;;;;;;;;;;9.18;51.89;101449.31;4966319;28;8527;-72
2023/01/30 21:31:21;;;;;;;;;;;;;;;9.11;51.94;101452.22;4984735;28;6784;-72
2023/01/30 21:33:48;;;;;;;;;;;;;;;9.05;52.16;101451.78;4979822;28;7028;-72
2023/01/30 21:36:15;;;;;;;;;;;;;;;8.99;52.31;101453.13;4976942;28;7053;-72
2023/01/30 21:44:17;;;;;;;;;;;;;;;8.78;52.96;101456.69;4983130;28;6788;-72
2023/01/30 21:46:47;;;;;;;;;;;;;;;8.73;52.44;101462.38;5000037;28;6791;-72
2023/01/30 21:49:15;;;;;;;;;;;;;;;8.69;53.12;101469.69;4982334;28;6844;-72
2023/01/30 21:51:44;;;;;;;;;;;;;;;8.66;52.48;101480.59;4983095;28;7093;-71
2023/01/30 21:54:11;;;;;;;;;;;;;;;8.64;52.98;101487.25;4968240;28;7249;-71
2023/01/30 21:56:37;;;;;;;;;;;;;;;8.66;53.78;101485.69;4984241;28;6796;-72
2023/01/30 21:59:04;;;;;;;;;;;;;;;8.69;52.75;101480.84;4970466;28;7341;-71
2023/01/30 22:01:32;;;;;;;;;;;;;;;8.76;53.73;101487.28;4965328;28;7383;-71
2023/01/30 22:03:58;;;;;;;;;;;;;;;8.81;53.30;101483.38;4985011;28;7217;-71
2023/01/30 22:06:24;;;;;;;;;;;;;;;8.90;52.96;101485.72;4986430;28;6780;-71
2023/01/30 22:08:54;;;;;;;;;;;;;;;8.96;53.75;101485.25;4984416;28;6780;-71
2023/01/30 22:11:20;;;;;;;;;;;;;;;9.01;53.02;101477.16;4980203;28;7002;-71
2023/01/30 22:13:46;;;;;;;;;;;;;;;9.03;52.58;101483.25;4982138;28;7274;-72
2023/01/30 22:16:22;;;;;;;;;;;;;;;9.02;52.21;101489.16;5004767;28;6787;-72
2023/01/30 22:18:58;;;;;;;;;;;;;;;8.98;52.01;101492.28;4997889;28;8036;-72
2023/01/30 22:21:29;;;;;;;;;;;;;;;8.89;53.02;101491.63;4980401;28;6871;-71
2023/01/30 22:23:55;;;;;;;;;;;;;;;8.79;53.21;101482.38;4987715;28;7071;-71
2023/01/30 22:26:24;;;;;;;;;;;;;;;8.72;52.20;101504.06;5000346;28;6914;-72
2023/01/30 22:28:58;;;;;;;;;;;;;;;8.66;52.79;101503.59;4981117;28;6875;-72
2023/01/30 22:31:28;;;;;;;;;;;;;;;8.60;53.01;101492.94;5000669;28;6832;-72
2023/01/30 22:33:55;;;;;;;;;;;;;;;8.55;52.99;101484.03;4982930;28;6961;-71
2023/01/30 22:36:27;;;;;;;;;;;;;;;8.53;53.50;101480.47;4984905;28;6784;-72
2023/01/30 22:38:53;;;;;;;;;;;;;;;8.51;53.43;101479.47;4982791;28;6808;-72
2023/01/30 22:41:25;;;;;;;;;;;;;;;8.52;52.71;101483.81;4967647;28;6964;-71
2023/01/30 22:43:55;;;;;;;;;;;;;;;8.53;53.67;101483.91;4980442;28;6961;-71
2023/01/30 22:46:26;;;;;;;;;;;;;;;8.56;54.22;101490.91;4978918;28;6820;-71
2023/01/30 22:48:52;;;;;;;;;;;;;;;8.59;54.14;101492.03;4984860;28;8596;-72
2023/01/30 22:51:27;;;;;;;;;;;;;;;8.64;54.53;101491.47;4996792;28;6788;-71
2023/01/30 22:53:57;;;;;;;;;;;;;;;8.67;53.12;101500.25;4977689;28;6824;-72
2023/01/30 22:56:30;;;;;;;;;;;;;;;8.70;54.34;101500.50;4981440;28;7819;-71
2023/01/30 22:58:56;;;;;;;;;;;;;;;8.74;53.58;101497.38;4969533;28;7229;-72
2023/01/30 23:01:28;;;;;;;;;;;;;;;8.77;54.34;101498.38;4982690;28;8375;-72
2023/01/30 23:03:56;;;;;;;;;;;;;;;8.77;54.44;101493.25;4981484;28;7150;-72
2023/01/30 23:06:23;;;;;;;;;;;;;;;8.81;54.50;101495.28;4983791;28;7744;-72
2023/01/30 23:08:51;;;;;;;;;;;;;;;8.83;54.48;101486.91;4985494;28;6807;-72
2023/01/30 23:11:20;;;;;;;;;;;;;;;8.85;53.95;101484.47;4969903;28;7276;-72
2023/01/30 23:13:50;;;;;;;;;;;;;;;8.84;54.26;101483.59;4998841;28;7085;-71
2023/01/30 23:16:20;;;;;;;;;;;;;;;8.80;53.07;101480.72;4979652;28;7293;-71
2023/01/30 23:19:00;;;;;;;;;;;;;;;8.74;53.69;101482.03;4976622;28;6869;-72
2023/01/30 23:21:38;;;;;;;;;;;;;;;8.64;53.51;101466.81;4984337;28;6803;-72
2023/01/30 23:24:11;;;;;;;;;;;;;;;8.54;53.75;101461.81;5003574;28;6788;-72
2023/01/30 23:26:40;;;;;;;;;;;;;;;8.47;53.72;101455.34;4998660;28;7110;-71
2023/01/30 23:29:11;;;;;;;;;;;;;;;8.39;53.85;101470.06;4979888;28;8159;-72
2023/01/30 23:31:39;;;;;;;;;;;;;;;8.34;53.01;101473.97;4998418;28;6804;-72
2023/01/30 23:34:10;;;;;;;;;;;;;;;8.29;54.04;101481.28;5000717;28;6808;-71
2023/01/30 23:36:35;;;;;;;;;;;;;;;8.23;54.29;101477.41;4984333;28;6804;-72
2023/01/30 23:39:02;;;;;;;;;;;;;;;8.15;53.66;101477.69;4985547;28;6812;-71
2023/01/30 23:41:34;;;;;;;;;;;;;;;8.10;53.35;101479.00;4999701;28;6788;-71
2023/01/30 23:44:01;;;;;;;;;;;;;;;8.05;53.98;101481.22;4999867;28;6945;-72
2023/01/30 23:46:40;;;;;;;;;;;;;;;8.01;53.34;101478.31;4980463;28;7720;-72
2023/01/30 23:49:10;;;;;;;;;;;;;;;7.97;53.91;101479.78;4980576;28;6803;-72
2023/01/30 23:51:40;;;;;;;;;;;;;;;7.93;54.44;101482.84;5000756;28;6799;-71
2023/01/30 23:54:07;;;;;;;;;;;;;;;7.89;53.59;101481.72;4982874;28;6891;-71
2023/01/30 23:56:41;;;;;;;;;;;;;;;7.87;54.72;101477.25;4975633;28;7185;-72
2023/01/30 23:59:07;;;;;;;;;;;;;;;7.83;54.27;101483.81;4988166;28;6824;-71
